sensor_id;sensor_type;location;lat;lon;timestamp;P1;durP1;ratioP1;P2;durP2;ratioP2
14191;SDS011;7177;48.572;7.838;2022-12-18T00:00:45;85.70;;;39.72;;
14191;SDS011;7177;48.572;7.838;2022-12-18T00:03:12;86.00;;;38.35;;
14191;SDS011;7177;48.572;7.838;2022-12-18T00:05:45;90.70;;;40.72;;
14191;SDS011;7177;48.572;7.838;2022-12-18T00:08:12;90.78;;;41.15;;
14191;SDS011;7177;48.572;7.838;2022-12-18T00:10:38;95.80;;;42.23;;
14191;SDS011;7177;48.572;7.838;2022-12-18T00:13:03;83.73;;;39.67;;
14191;SDS011;7177;48.572;7.838;2022-12-18T00:15:29;90.83;;;39.63;;
14191;SDS011;7177;48.572;7.838;2022-12-18T00:17:54;87.40;;;41.07;;
14191;SDS011;7177;48.572;7.838;2022-12-18T00:20:20;86.13;;;39.17;;
14191;SDS011;7177;48.572;7.838;2022-12-18T00:22:50;91.00;;;41.20;;
14191;SDS011;7177;48.572;7.838;2022-12-18T00:25:19;81.63;;;39.58;;
14191;SDS011;7177;48.572;7.838;2022-12-18T00:27:45;88.60;;;39.70;;
14191;SDS011;7177;48.572;7.838;2022-12-18T00:30:10;92.63;;;41.47;;
14191;SDS011;7177;48.572;7.838;2022-12-18T00:32:36;91.75;;;41.75;;
14191;SDS011;7177;48.572;7.838;2022-12-18T00:35:02;83.73;;;39.30;;
14191;SDS011;7177;48.572;7.838;2022-12-18T00:37:29;83.25;;;40.88;;
14191;SDS011;7177;48.572;7.838;2022-12-18T00:39:54;94.67;;;41.23;;
14191;SDS011;7177;48.572;7.838;2022-12-18T00:42:20;86.47;;;40.20;;
14191;SDS011;7177;48.572;7.838;2022-12-18T00:45:04;82.53;;;39.25;;
14191;SDS011;7177;48.572;7.838;2022-12-18T00:47:30;81.70;;;37.70;;
14191;SDS011;7177;48.572;7.838;2022-12-18T00:49:55;106.63;;;37.33;;
14191;SDS011;7177;48.572;7.838;2022-12-18T00:52:21;82.03;;;36.03;;
14191;SDS011;7177;48.572;7.838;2022-12-18T00:54:46;79.50;;;37.13;;
14191;SDS011;7177;48.572;7.838;2022-12-18T00:57:12;88.27;;;38.20;;
14191;SDS011;7177;48.572;7.838;2022-12-18T00:59:37;81.43;;;36.73;;
14191;SDS011;7177;48.572;7.838;2022-12-18T01:02:03;78.87;;;36.27;;
14191;SDS011;7177;48.572;7.838;2022-12-18T01:04:30;71.77;;;34.83;;
14191;SDS011;7177;48.572;7.838;2022-12-18T01:06:57;78.20;;;37.35;;
14191;SDS011;7177;48.572;7.838;2022-12-18T01:09:22;76.80;;;35.63;;
14191;SDS011;7177;48.572;7.838;2022-12-18T01:11:48;79.63;;;36.43;;
14191;SDS011;7177;48.572;7.838;2022-12-18T01:14:13;99.00;;;39.90;;
14191;SDS011;7177;48.572;7.838;2022-12-18T01:16:39;80.20;;;37.20;;
14191;SDS011;7177;48.572;7.838;2022-12-18T01:19:04;79.03;;;37.47;;
14191;SDS011;7177;48.572;7.838;2022-12-18T01:21:30;86.60;;;37.83;;
14191;SDS011;7177;48.572;7.838;2022-12-18T01:23:56;86.97;;;39.70;;
14191;SDS011;7177;48.572;7.838;2022-12-18T01:26:22;89.93;;;38.80;;
14191;SDS011;7177;48.572;7.838;2022-12-18T01:28:48;85.85;;;38.72;;
14191;SDS011;7177;48.572;7.838;2022-12-18T01:31:18;91.33;;;40.03;;
14191;SDS011;7177;48.572;7.838;2022-12-18T01:33:47;103.20;;;39.30;;
14191;SDS011;7177;48.572;7.838;2022-12-18T01:36:17;88.38;;;38.88;;
14191;SDS011;7177;48.572;7.838;2022-12-18T01:38:43;90.20;;;40.28;;
14191;SDS011;7177;48.572;7.838;2022-12-18T01:41:09;80.20;;;38.87;;
14191;SDS011;7177;48.572;7.838;2022-12-18T01:43:49;92.95;;;39.15;;
14191;SDS011;7177;48.572;7.838;2022-12-18T01:46:17;89.43;;;40.50;;
14191;SDS011;7177;48.572;7.838;2022-12-18T01:48:44;81.18;;;38.10;;
14191;SDS011;7177;48.572;7.838;2022-12-18T01:51:12;76.68;;;35.25;;
14191;SDS011;7177;48.572;7.838;2022-12-18T01:53:40;90.53;;;39.78;;
14191;SDS011;7177;48.572;7.838;2022-12-18T01:56:06;84.68;;;38.53;;
14191;SDS011;7177;48.572;7.838;2022-12-18T02:01:08;92.93;;;40.65;;
14191;SDS011;7177;48.572;7.838;2022-12-18T02:03:34;87.30;;;39.40;;
14191;SDS011;7177;48.572;7.838;2022-12-18T02:08:30;82.30;;;37.13;;
14191;SDS011;7177;48.572;7.838;2022-12-18T02:11:06;81.82;;;37.33;;
14191;SDS011;7177;48.572;7.838;2022-12-18T02:22:12;78.78;;;36.40;;
14191;SDS011;7177;48.572;7.838;2022-12-18T02:24:43;81.57;;;37.78;;
14191;SDS011;7177;48.572;7.838;2022-12-18T02:27:18;74.63;;;37.47;;
14191;SDS011;7177;48.572;7.838;2022-12-18T02:29:49;79.95;;;37.10;;
14191;SDS011;7177;48.572;7.838;2022-12-18T02:32:34;87.75;;;39.13;;
14191;SDS011;7177;48.572;7.838;2022-12-18T02:35:06;81.28;;;38.40;;
14191;SDS011;7177;48.572;7.838;2022-12-18T02:37:37;78.88;;;37.40;;
14191;SDS011;7177;48.572;7.838;2022-12-18T02:40:06;83.88;;;39.17;;
14191;SDS011;7177;48.572;7.838;2022-12-18T02:42:33;77.60;;;38.03;;
14191;SDS011;7177;48.572;7.838;2022-12-18T02:44:59;77.17;;;37.10;;
14191;SDS011;7177;48.572;7.838;2022-12-18T02:47:27;77.90;;;38.07;;
14191;SDS011;7177;48.572;7.838;2022-12-18T02:50:13;83.15;;;38.90;;
14191;SDS011;7177;48.572;7.838;2022-12-18T02:55:58;75.18;;;34.53;;
14191;SDS011;7177;48.572;7.838;2022-12-18T02:58:39;90.22;;;40.33;;
14191;SDS011;7177;48.572;7.838;2022-12-18T03:03:47;80.38;;;38.95;;
14191;SDS011;7177;48.572;7.838;2022-12-18T03:06:33;74.63;;;36.80;;
14191;SDS011;7177;48.572;7.838;2022-12-18T03:09:10;73.43;;;34.92;;
14191;SDS011;7177;48.572;7.838;2022-12-18T03:11:40;79.47;;;37.88;;
14191;SDS011;7177;48.572;7.838;2022-12-18T03:14:29;85.10;;;37.13;;
14191;SDS011;7177;48.572;7.838;2022-12-18T03:16:57;75.18;;;34.25;;
14191;SDS011;7177;48.572;7.838;2022-12-18T03:19:27;74.43;;;36.33;;
14191;SDS011;7177;48.572;7.838;2022-12-18T03:21:56;80.80;;;35.72;;
14191;SDS011;7177;48.572;7.838;2022-12-18T03:24:23;73.68;;;35.38;;
14191;SDS011;7177;48.572;7.838;2022-12-18T03:26:52;71.47;;;33.75;;
14191;SDS011;7177;48.572;7.838;2022-12-18T03:29:22;79.35;;;35.05;;
14191;SDS011;7177;48.572;7.838;2022-12-18T03:31:55;82.00;;;35.80;;
14191;SDS011;7177;48.572;7.838;2022-12-18T03:34:28;82.10;;;35.08;;
14191;SDS011;7177;48.572;7.838;2022-12-18T03:36:55;76.40;;;34.70;;
14191;SDS011;7177;48.572;7.838;2022-12-18T03:39:21;76.10;;;35.90;;
14191;SDS011;7177;48.572;7.838;2022-12-18T03:41:48;77.77;;;34.50;;
14191;SDS011;7177;48.572;7.838;2022-12-18T03:44:26;78.53;;;36.63;;
14191;SDS011;7177;48.572;7.838;2022-12-18T03:47:13;78.85;;;35.63;;
14191;SDS011;7177;48.572;7.838;2022-12-18T03:49:43;85.38;;;38.15;;
14191;SDS011;7177;48.572;7.838;2022-12-18T03:52:33;80.13;;;36.85;;
14191;SDS011;7177;48.572;7.838;2022-12-18T03:55:22;80.63;;;34.78;;
14191;SDS011;7177;48.572;7.838;2022-12-18T03:57:50;75.18;;;33.70;;
14191;SDS011;7177;48.572;7.838;2022-12-18T04:00:18;87.68;;;37.50;;
14191;SDS011;7177;48.572;7.838;2022-12-18T04:02:45;91.22;;;39.47;;
14191;SDS011;7177;48.572;7.838;2022-12-18T04:05:18;93.25;;;39.17;;
14191;SDS011;7177;48.572;7.838;2022-12-18T04:07:46;94.85;;;41.33;;
14191;SDS011;7177;48.572;7.838;2022-12-18T04:10:14;93.43;;;39.53;;
14191;SDS011;7177;48.572;7.838;2022-12-18T04:12:41;98.05;;;41.88;;
14191;SDS011;7177;48.572;7.838;2022-12-18T04:15:07;110.37;;;42.03;;
14191;SDS011;7177;48.572;7.838;2022-12-18T04:17:33;93.38;;;39.45;;
14191;SDS011;7177;48.572;7.838;2022-12-18T04:19:59;87.53;;;37.73;;
14191;SDS011;7177;48.572;7.838;2022-12-18T04:22:25;79.17;;;34.70;;
14191;SDS011;7177;48.572;7.838;2022-12-18T04:24:50;77.87;;;35.80;;
14191;SDS011;7177;48.572;7.838;2022-12-18T04:27:16;73.33;;;32.97;;
14191;SDS011;7177;48.572;7.838;2022-12-18T04:29:41;70.07;;;32.07;;
14191;SDS011;7177;48.572;7.838;2022-12-18T04:32:07;71.40;;;32.33;;
14191;SDS011;7177;48.572;7.838;2022-12-18T04:34:33;74.65;;;33.25;;
14191;SDS011;7177;48.572;7.838;2022-12-18T04:36:58;66.40;;;31.00;;
14191;SDS011;7177;48.572;7.838;2022-12-18T04:39:24;69.47;;;29.93;;
14191;SDS011;7177;48.572;7.838;2022-12-18T04:41:50;76.40;;;32.20;;
14191;SDS011;7177;48.572;7.838;2022-12-18T04:44:15;81.50;;;33.20;;
14191;SDS011;7177;48.572;7.838;2022-12-18T04:46:41;79.60;;;35.60;;
14191;SDS011;7177;48.572;7.838;2022-12-18T04:49:06;87.80;;;35.10;;
14191;SDS011;7177;48.572;7.838;2022-12-18T04:51:32;85.27;;;34.87;;
14191;SDS011;7177;48.572;7.838;2022-12-18T04:53:58;88.77;;;37.00;;
14191;SDS011;7177;48.572;7.838;2022-12-18T04:56:23;92.60;;;38.03;;
14191;SDS011;7177;48.572;7.838;2022-12-18T04:58:49;89.10;;;35.83;;
14191;SDS011;7177;48.572;7.838;2022-12-18T05:01:15;90.13;;;35.67;;
14191;SDS011;7177;48.572;7.838;2022-12-18T05:03:42;88.93;;;35.38;;
14191;SDS011;7177;48.572;7.838;2022-12-18T05:06:08;87.70;;;36.13;;
14191;SDS011;7177;48.572;7.838;2022-12-18T05:08:34;93.25;;;36.47;;
14191;SDS011;7177;48.572;7.838;2022-12-18T05:11:00;94.97;;;37.57;;
14191;SDS011;7177;48.572;7.838;2022-12-18T05:13:27;86.15;;;35.50;;
14191;SDS011;7177;48.572;7.838;2022-12-18T05:15:54;108.80;;;38.92;;
14191;SDS011;7177;48.572;7.838;2022-12-18T05:18:20;85.63;;;34.38;;
14191;SDS011;7177;48.572;7.838;2022-12-18T05:20:46;87.72;;;35.47;;
14191;SDS011;7177;48.572;7.838;2022-12-18T05:23:12;79.20;;;34.90;;
14191;SDS011;7177;48.572;7.838;2022-12-18T05:25:37;76.70;;;33.97;;
14191;SDS011;7177;48.572;7.838;2022-12-18T05:28:03;73.10;;;31.17;;
14191;SDS011;7177;48.572;7.838;2022-12-18T05:30:29;80.13;;;32.47;;
14191;SDS011;7177;48.572;7.838;2022-12-18T05:32:54;74.90;;;32.90;;
14191;SDS011;7177;48.572;7.838;2022-12-18T05:35:20;80.30;;;33.83;;
14191;SDS011;7177;48.572;7.838;2022-12-18T05:37:45;73.53;;;29.93;;
14191;SDS011;7177;48.572;7.838;2022-12-18T05:40:11;81.97;;;32.10;;
14191;SDS011;7177;48.572;7.838;2022-12-18T05:42:37;81.13;;;31.90;;
14191;SDS011;7177;48.572;7.838;2022-12-18T05:45:03;73.93;;;30.47;;
14191;SDS011;7177;48.572;7.838;2022-12-18T05:47:29;80.88;;;32.38;;
14191;SDS011;7177;48.572;7.838;2022-12-18T05:49:54;79.73;;;30.37;;
14191;SDS011;7177;48.572;7.838;2022-12-18T05:52:20;73.17;;;28.73;;
14191;SDS011;7177;48.572;7.838;2022-12-18T05:54:46;63.80;;;29.00;;
14191;SDS011;7177;48.572;7.838;2022-12-18T05:57:11;72.73;;;30.50;;
14191;SDS011;7177;48.572;7.838;2022-12-18T05:59:37;65.77;;;28.60;;
14191;SDS011;7177;48.572;7.838;2022-12-18T06:02:02;76.00;;;30.93;;
14191;SDS011;7177;48.572;7.838;2022-12-18T06:04:29;68.43;;;28.37;;
14191;SDS011;7177;48.572;7.838;2022-12-18T06:06:55;71.15;;;28.58;;
14191;SDS011;7177;48.572;7.838;2022-12-18T06:09:20;72.17;;;28.03;;
14191;SDS011;7177;48.572;7.838;2022-12-18T06:11:46;68.60;;;28.73;;
14191;SDS011;7177;48.572;7.838;2022-12-18T06:14:11;67.03;;;27.23;;
14191;SDS011;7177;48.572;7.838;2022-12-18T06:16:37;79.07;;;28.97;;
14191;SDS011;7177;48.572;7.838;2022-12-18T06:19:03;69.33;;;26.87;;
14191;SDS011;7177;48.572;7.838;2022-12-18T06:21:30;75.57;;;28.42;;
14191;SDS011;7177;48.572;7.838;2022-12-18T06:23:57;79.88;;;28.73;;
14191;SDS011;7177;48.572;7.838;2022-12-18T06:26:22;79.50;;;29.83;;
14191;SDS011;7177;48.572;7.838;2022-12-18T06:28:48;69.25;;;26.90;;
14191;SDS011;7177;48.572;7.838;2022-12-18T06:31:14;66.80;;;28.07;;
14191;SDS011;7177;48.572;7.838;2022-12-18T06:33:40;71.15;;;26.23;;
14191;SDS011;7177;48.572;7.838;2022-12-18T06:36:07;67.17;;;26.27;;
14191;SDS011;7177;48.572;7.838;2022-12-18T06:38:37;70.35;;;26.48;;
14191;SDS011;7177;48.572;7.838;2022-12-18T06:41:08;74.13;;;30.85;;
14191;SDS011;7177;48.572;7.838;2022-12-18T06:43:35;76.30;;;31.30;;
14191;SDS011;7177;48.572;7.838;2022-12-18T06:46:01;61.10;;;29.33;;
14191;SDS011;7177;48.572;7.838;2022-12-18T06:48:28;62.05;;;28.50;;
14191;SDS011;7177;48.572;7.838;2022-12-18T06:50:53;56.35;;;26.88;;
14191;SDS011;7177;48.572;7.838;2022-12-18T06:53:19;57.53;;;27.10;;
14191;SDS011;7177;48.572;7.838;2022-12-18T06:55:45;62.90;;;28.23;;
14191;SDS011;7177;48.572;7.838;2022-12-18T06:58:10;62.57;;;28.00;;
14191;SDS011;7177;48.572;7.838;2022-12-18T07:00:36;59.17;;;26.57;;
14191;SDS011;7177;48.572;7.838;2022-12-18T07:03:01;64.87;;;27.07;;
14191;SDS011;7177;48.572;7.838;2022-12-18T07:05:27;62.90;;;26.63;;
14191;SDS011;7177;48.572;7.838;2022-12-18T07:07:53;60.50;;;25.87;;
14191;SDS011;7177;48.572;7.838;2022-12-18T07:10:18;61.77;;;26.50;;
14191;SDS011;7177;48.572;7.838;2022-12-18T07:12:44;59.97;;;25.30;;
14191;SDS011;7177;48.572;7.838;2022-12-18T07:15:10;60.03;;;25.20;;
14191;SDS011;7177;48.572;7.838;2022-12-18T07:17:35;57.17;;;25.73;;
14191;SDS011;7177;48.572;7.838;2022-12-18T07:20:01;57.77;;;27.07;;
14191;SDS011;7177;48.572;7.838;2022-12-18T07:22:27;62.23;;;27.23;;
14191;SDS011;7177;48.572;7.838;2022-12-18T07:24:52;63.67;;;27.47;;
14191;SDS011;7177;48.572;7.838;2022-12-18T07:27:18;60.97;;;26.30;;
14191;SDS011;7177;48.572;7.838;2022-12-18T07:29:43;62.30;;;28.27;;
14191;SDS011;7177;48.572;7.838;2022-12-18T07:32:09;65.70;;;26.63;;
14191;SDS011;7177;48.572;7.838;2022-12-18T07:34:34;68.07;;;26.57;;
14191;SDS011;7177;48.572;7.838;2022-12-18T07:37:00;68.83;;;27.50;;
14191;SDS011;7177;48.572;7.838;2022-12-18T07:39:26;69.17;;;26.60;;
14191;SDS011;7177;48.572;7.838;2022-12-18T07:41:51;63.87;;;27.37;;
14191;SDS011;7177;48.572;7.838;2022-12-18T07:44:35;63.08;;;25.80;;
14191;SDS011;7177;48.572;7.838;2022-12-18T07:47:02;70.05;;;26.75;;
14191;SDS011;7177;48.572;7.838;2022-12-18T07:49:27;61.53;;;26.63;;
14191;SDS011;7177;48.572;7.838;2022-12-18T07:51:54;67.17;;;27.37;;
14191;SDS011;7177;48.572;7.838;2022-12-18T07:54:21;63.35;;;26.40;;
14191;SDS011;7177;48.572;7.838;2022-12-18T07:56:47;60.33;;;25.80;;
14191;SDS011;7177;48.572;7.838;2022-12-18T07:59:13;54.77;;;24.40;;
14191;SDS011;7177;48.572;7.838;2022-12-18T08:01:38;60.13;;;25.50;;
14191;SDS011;7177;48.572;7.838;2022-12-18T08:04:04;58.50;;;22.30;;
14191;SDS011;7177;48.572;7.838;2022-12-18T08:06:29;54.40;;;23.30;;
14191;SDS011;7177;48.572;7.838;2022-12-18T08:08:55;51.23;;;24.17;;
14191;SDS011;7177;48.572;7.838;2022-12-18T08:11:22;52.47;;;22.55;;
14191;SDS011;7177;48.572;7.838;2022-12-18T08:13:48;63.88;;;25.70;;
14191;SDS011;7177;48.572;7.838;2022-12-18T08:16:14;67.33;;;25.87;;
14191;SDS011;7177;48.572;7.838;2022-12-18T08:18:40;56.70;;;24.77;;
14191;SDS011;7177;48.572;7.838;2022-12-18T08:23:41;67.65;;;24.58;;
14191;SDS011;7177;48.572;7.838;2022-12-18T08:26:07;57.80;;;24.92;;
14191;SDS011;7177;48.572;7.838;2022-12-18T08:28:34;60.97;;;25.40;;
14191;SDS011;7177;48.572;7.838;2022-12-18T08:30:59;59.50;;;24.07;;
14191;SDS011;7177;48.572;7.838;2022-12-18T08:33:25;63.13;;;25.87;;
14191;SDS011;7177;48.572;7.838;2022-12-18T08:35:51;55.72;;;24.67;;
14191;SDS011;7177;48.572;7.838;2022-12-18T08:38:17;62.60;;;26.52;;
14191;SDS011;7177;48.572;7.838;2022-12-18T08:40:43;50.83;;;23.17;;
14191;SDS011;7177;48.572;7.838;2022-12-18T08:43:09;66.13;;;23.53;;
14191;SDS011;7177;48.572;7.838;2022-12-18T08:45:54;52.40;;;23.52;;
14191;SDS011;7177;48.572;7.838;2022-12-18T08:48:20;65.27;;;23.60;;
14191;SDS011;7177;48.572;7.838;2022-12-18T08:50:58;42.10;;;21.80;;
14191;SDS011;7177;48.572;7.838;2022-12-18T08:53:24;43.72;;;21.30;;
14191;SDS011;7177;48.572;7.838;2022-12-18T08:55:50;66.47;;;23.60;;
14191;SDS011;7177;48.572;7.838;2022-12-18T08:58:16;54.13;;;24.30;;
14191;SDS011;7177;48.572;7.838;2022-12-18T09:00:42;53.37;;;23.47;;
14191;SDS011;7177;48.572;7.838;2022-12-18T09:03:11;65.17;;;25.73;;
14191;SDS011;7177;48.572;7.838;2022-12-18T09:05:38;61.60;;;24.90;;
14191;SDS011;7177;48.572;7.838;2022-12-18T09:08:04;57.50;;;24.83;;
14191;SDS011;7177;48.572;7.838;2022-12-18T09:10:29;68.20;;;24.97;;
14191;SDS011;7177;48.572;7.838;2022-12-18T09:12:55;44.30;;;23.33;;
14191;SDS011;7177;48.572;7.838;2022-12-18T09:15:21;60.70;;;23.30;;
14191;SDS011;7177;48.572;7.838;2022-12-18T09:17:46;49.40;;;21.33;;
14191;SDS011;7177;48.572;7.838;2022-12-18T09:20:13;75.70;;;24.05;;
14191;SDS011;7177;48.572;7.838;2022-12-18T09:22:38;59.10;;;22.93;;
14191;SDS011;7177;48.572;7.838;2022-12-18T09:25:04;53.90;;;23.73;;
14191;SDS011;7177;48.572;7.838;2022-12-18T09:27:32;44.05;;;21.63;;
14191;SDS011;7177;48.572;7.838;2022-12-18T09:29:58;53.97;;;21.93;;
14191;SDS011;7177;48.572;7.838;2022-12-18T09:32:24;55.10;;;23.10;;
14191;SDS011;7177;48.572;7.838;2022-12-18T09:34:49;54.07;;;24.10;;
14191;SDS011;7177;48.572;7.838;2022-12-18T09:37:15;49.63;;;22.07;;
14191;SDS011;7177;48.572;7.838;2022-12-18T09:39:40;49.30;;;22.30;;
14191;SDS011;7177;48.572;7.838;2022-12-18T09:42:08;44.10;;;21.47;;
14191;SDS011;7177;48.572;7.838;2022-12-18T09:44:43;46.72;;;22.95;;
14191;SDS011;7177;48.572;7.838;2022-12-18T09:47:22;44.38;;;21.30;;
14191;SDS011;7177;48.572;7.838;2022-12-18T09:50:14;47.10;;;22.45;;
14191;SDS011;7177;48.572;7.838;2022-12-18T09:52:42;40.78;;;21.40;;
14191;SDS011;7177;48.572;7.838;2022-12-18T09:58:00;48.38;;;24.13;;
14191;SDS011;7177;48.572;7.838;2022-12-18T10:00:46;46.42;;;23.23;;
14191;SDS011;7177;48.572;7.838;2022-12-18T10:03:13;58.50;;;25.80;;
14191;SDS011;7177;48.572;7.838;2022-12-18T10:11:29;52.42;;;25.30;;
14191;SDS011;7177;48.572;7.838;2022-12-18T10:14:25;55.35;;;25.33;;
14191;SDS011;7177;48.572;7.838;2022-12-18T10:25:20;56.45;;;27.38;;
14191;SDS011;7177;48.572;7.838;2022-12-18T10:28:06;55.72;;;26.45;;
14191;SDS011;7177;48.572;7.838;2022-12-18T10:30:38;52.10;;;26.60;;
14191;SDS011;7177;48.572;7.838;2022-12-18T10:33:04;55.35;;;26.52;;
14191;SDS011;7177;48.572;7.838;2022-12-18T10:35:30;54.17;;;24.37;;
14191;SDS011;7177;48.572;7.838;2022-12-18T10:38:06;57.00;;;28.30;;
14191;SDS011;7177;48.572;7.838;2022-12-18T10:40:32;59.67;;;28.55;;
14191;SDS011;7177;48.572;7.838;2022-12-18T10:43:12;56.05;;;29.23;;
14191;SDS011;7177;48.572;7.838;2022-12-18T10:45:39;57.53;;;29.45;;
14191;SDS011;7177;48.572;7.838;2022-12-18T10:48:17;59.55;;;31.27;;
14191;SDS011;7177;48.572;7.838;2022-12-18T10:50:47;60.92;;;29.95;;
14191;SDS011;7177;48.572;7.838;2022-12-18T10:53:22;69.15;;;35.17;;
14191;SDS011;7177;48.572;7.838;2022-12-18T10:55:53;62.25;;;31.88;;
14191;SDS011;7177;48.572;7.838;2022-12-18T10:58:30;65.10;;;33.33;;
14191;SDS011;7177;48.572;7.838;2022-12-18T11:03:44;68.95;;;35.17;;
14191;SDS011;7177;48.572;7.838;2022-12-18T11:06:20;65.05;;;32.28;;
14191;SDS011;7177;48.572;7.838;2022-12-18T11:11:49;65.50;;;33.38;;
14191;SDS011;7177;48.572;7.838;2022-12-18T11:14:24;71.93;;;33.38;;
14191;SDS011;7177;48.572;7.838;2022-12-18T11:16:58;67.22;;;33.55;;
14191;SDS011;7177;48.572;7.838;2022-12-18T11:19:34;93.18;;;42.65;;
14191;SDS011;7177;48.572;7.838;2022-12-18T11:22:03;63.25;;;31.77;;
14191;SDS011;7177;48.572;7.838;2022-12-18T11:24:56;67.22;;;32.53;;
14191;SDS011;7177;48.572;7.838;2022-12-18T11:27:24;70.38;;;34.50;;
14191;SDS011;7177;48.572;7.838;2022-12-18T11:29:51;64.30;;;31.15;;
14191;SDS011;7177;48.572;7.838;2022-12-18T11:37:50;68.72;;;32.40;;
14191;SDS011;7177;48.572;7.838;2022-12-18T11:40:36;61.22;;;31.05;;
14191;SDS011;7177;48.572;7.838;2022-12-18T11:43:17;69.72;;;33.35;;
14191;SDS011;7177;48.572;7.838;2022-12-18T11:45:53;67.75;;;33.00;;
14191;SDS011;7177;48.572;7.838;2022-12-18T11:48:41;61.13;;;30.88;;
14191;SDS011;7177;48.572;7.838;2022-12-18T11:51:18;62.45;;;32.10;;
14191;SDS011;7177;48.572;7.838;2022-12-18T11:53:51;63.25;;;30.98;;
14191;SDS011;7177;48.572;7.838;2022-12-18T12:04:11;60.10;;;30.15;;
14191;SDS011;7177;48.572;7.838;2022-12-18T12:07:11;61.08;;;31.63;;
14191;SDS011;7177;48.572;7.838;2022-12-18T12:10:00;59.25;;;29.80;;
14191;SDS011;7177;48.572;7.838;2022-12-18T12:15:17;63.72;;;31.13;;
14191;SDS011;7177;48.572;7.838;2022-12-18T12:18:21;64.13;;;31.00;;
14191;SDS011;7177;48.572;7.838;2022-12-18T12:23:41;67.70;;;32.30;;
14191;SDS011;7177;48.572;7.838;2022-12-18T12:26:16;63.97;;;32.65;;
14191;SDS011;7177;48.572;7.838;2022-12-18T12:29:09;58.47;;;29.75;;
14191;SDS011;7177;48.572;7.838;2022-12-18T12:32:13;65.47;;;32.17;;
14191;SDS011;7177;48.572;7.838;2022-12-18T12:38:24;61.50;;;30.35;;
14191;SDS011;7177;48.572;7.838;2022-12-18T12:41:00;67.05;;;30.88;;
14191;SDS011;7177;48.572;7.838;2022-12-18T12:43:51;69.00;;;33.40;;
14191;SDS011;7177;48.572;7.838;2022-12-18T12:46:18;71.10;;;33.95;;
14191;SDS011;7177;48.572;7.838;2022-12-18T12:48:46;70.05;;;32.50;;
14191;SDS011;7177;48.572;7.838;2022-12-18T12:51:21;66.28;;;33.00;;
14191;SDS011;7177;48.572;7.838;2022-12-18T12:53:48;65.00;;;32.17;;
14191;SDS011;7177;48.572;7.838;2022-12-18T12:56:14;59.83;;;30.07;;
14191;SDS011;7177;48.572;7.838;2022-12-18T12:59:08;63.70;;;31.08;;
14191;SDS011;7177;48.572;7.838;2022-12-18T13:01:57;62.30;;;31.00;;
14191;SDS011;7177;48.572;7.838;2022-12-18T13:07:12;65.05;;;34.00;;
14191;SDS011;7177;48.572;7.838;2022-12-18T13:12:57;72.22;;;34.50;;
14191;SDS011;7177;48.572;7.838;2022-12-18T13:15:29;57.97;;;29.60;;
14191;SDS011;7177;48.572;7.838;2022-12-18T13:20:36;62.30;;;31.27;;
14191;SDS011;7177;48.572;7.838;2022-12-18T13:25:48;67.63;;;34.88;;
14191;SDS011;7177;48.572;7.838;2022-12-18T13:28:20;71.85;;;35.40;;
14191;SDS011;7177;48.572;7.838;2022-12-18T13:31:05;75.22;;;38.40;;
14191;SDS011;7177;48.572;7.838;2022-12-18T13:38:47;70.95;;;34.53;;
14191;SDS011;7177;48.572;7.838;2022-12-18T13:41:32;70.68;;;34.58;;
14191;SDS011;7177;48.572;7.838;2022-12-18T13:46:49;68.95;;;33.45;;
14191;SDS011;7177;48.572;7.838;2022-12-18T13:49:27;71.63;;;35.25;;
14191;SDS011;7177;48.572;7.838;2022-12-18T13:52:14;77.47;;;37.97;;
14191;SDS011;7177;48.572;7.838;2022-12-18T13:54:50;74.50;;;35.38;;
14191;SDS011;7177;48.572;7.838;2022-12-18T13:57:25;71.65;;;34.72;;
14191;SDS011;7177;48.572;7.838;2022-12-18T13:59:55;79.75;;;36.92;;
14191;SDS011;7177;48.572;7.838;2022-12-18T14:02:22;76.53;;;36.85;;
14191;SDS011;7177;48.572;7.838;2022-12-18T14:04:52;82.00;;;38.50;;
14191;SDS011;7177;48.572;7.838;2022-12-18T14:07:22;69.03;;;35.72;;
14191;SDS011;7177;48.572;7.838;2022-12-18T14:09:51;81.47;;;39.05;;
14191;SDS011;7177;48.572;7.838;2022-12-18T14:12:25;76.15;;;38.13;;
14191;SDS011;7177;48.572;7.838;2022-12-18T14:15:32;71.10;;;36.50;;
14191;SDS011;7177;48.572;7.838;2022-12-18T14:20:52;75.50;;;38.35;;
14191;SDS011;7177;48.572;7.838;2022-12-18T14:25:58;74.43;;;35.67;;
14191;SDS011;7177;48.572;7.838;2022-12-18T14:28:24;86.55;;;40.42;;
14191;SDS011;7177;48.572;7.838;2022-12-18T14:30:51;89.03;;;41.45;;
14191;SDS011;7177;48.572;7.838;2022-12-18T14:33:18;93.22;;;40.90;;
14191;SDS011;7177;48.572;7.838;2022-12-18T14:38:21;80.85;;;38.50;;
14191;SDS011;7177;48.572;7.838;2022-12-18T14:40:59;81.82;;;38.47;;
14191;SDS011;7177;48.572;7.838;2022-12-18T14:43:33;84.35;;;39.00;;
14191;SDS011;7177;48.572;7.838;2022-12-18T14:46:01;95.60;;;44.42;;
14191;SDS011;7177;48.572;7.838;2022-12-18T14:51:03;89.55;;;42.00;;
14191;SDS011;7177;48.572;7.838;2022-12-18T14:53:45;81.55;;;42.08;;
14191;SDS011;7177;48.572;7.838;2022-12-18T14:56:16;87.32;;;41.40;;
14191;SDS011;7177;48.572;7.838;2022-12-18T14:58:53;89.07;;;41.60;;
14191;SDS011;7177;48.572;7.838;2022-12-18T15:01:31;84.25;;;41.88;;
14191;SDS011;7177;48.572;7.838;2022-12-18T15:04:02;71.40;;;36.08;;
14191;SDS011;7177;48.572;7.838;2022-12-18T15:06:30;83.30;;;38.13;;
14191;SDS011;7177;48.572;7.838;2022-12-18T15:08:59;89.32;;;40.80;;
14191;SDS011;7177;48.572;7.838;2022-12-18T15:11:32;83.78;;;39.88;;
14191;SDS011;7177;48.572;7.838;2022-12-18T15:17:15;89.18;;;39.72;;
14191;SDS011;7177;48.572;7.838;2022-12-18T15:19:44;87.03;;;41.03;;
14191;SDS011;7177;48.572;7.838;2022-12-18T15:24:50;86.90;;;42.15;;
14191;SDS011;7177;48.572;7.838;2022-12-18T15:27:26;92.65;;;45.25;;
14191;SDS011;7177;48.572;7.838;2022-12-18T15:32:26;100.40;;;44.97;;
14191;SDS011;7177;48.572;7.838;2022-12-18T15:35:01;85.40;;;41.53;;
14191;SDS011;7177;48.572;7.838;2022-12-18T15:37:32;88.43;;;42.90;;
14191;SDS011;7177;48.572;7.838;2022-12-18T15:39:58;80.60;;;38.63;;
14191;SDS011;7177;48.572;7.838;2022-12-18T15:42:23;88.93;;;41.97;;
14191;SDS011;7177;48.572;7.838;2022-12-18T15:45:10;83.43;;;40.20;;
14191;SDS011;7177;48.572;7.838;2022-12-18T15:47:36;88.45;;;42.03;;
14191;SDS011;7177;48.572;7.838;2022-12-18T15:50:02;85.00;;;40.50;;
14191;SDS011;7177;48.572;7.838;2022-12-18T15:52:28;100.90;;;48.33;;
14191;SDS011;7177;48.572;7.838;2022-12-18T15:54:53;91.97;;;43.93;;
14191;SDS011;7177;48.572;7.838;2022-12-18T15:57:37;82.75;;;40.13;;
14191;SDS011;7177;48.572;7.838;2022-12-18T16:00:03;91.93;;;40.63;;
14191;SDS011;7177;48.572;7.838;2022-12-18T16:02:29;89.68;;;44.20;;
14191;SDS011;7177;48.572;7.838;2022-12-18T16:04:56;84.33;;;40.53;;
14191;SDS011;7177;48.572;7.838;2022-12-18T16:07:22;87.88;;;40.90;;
14191;SDS011;7177;48.572;7.838;2022-12-18T16:09:48;88.57;;;42.50;;
14191;SDS011;7177;48.572;7.838;2022-12-18T16:12:17;91.27;;;42.40;;
14191;SDS011;7177;48.572;7.838;2022-12-18T16:14:45;93.32;;;42.85;;
14191;SDS011;7177;48.572;7.838;2022-12-18T16:17:11;82.90;;;39.63;;
14191;SDS011;7177;48.572;7.838;2022-12-18T16:19:38;112.40;;;47.63;;
14191;SDS011;7177;48.572;7.838;2022-12-18T16:22:04;95.70;;;44.40;;
14191;SDS011;7177;48.572;7.838;2022-12-18T16:24:32;103.30;;;44.90;;
14191;SDS011;7177;48.572;7.838;2022-12-18T16:26:59;90.13;;;43.45;;
14191;SDS011;7177;48.572;7.838;2022-12-18T16:29:26;81.20;;;39.25;;
14191;SDS011;7177;48.572;7.838;2022-12-18T16:31:53;91.45;;;42.40;;
14191;SDS011;7177;48.572;7.838;2022-12-18T16:34:23;85.65;;;42.13;;